createdAt,value
2018-04-25T00:01:54.489Z,6.53
2018-04-25T00:04:21.982Z,8.33
2018-04-25T00:06:49.452Z,7.47
2018-04-25T00:09:16.937Z,6.77
2018-04-25T00:11:44.556Z,7.67
2018-04-25T00:14:12.056Z,7.53
2018-04-25T00:16:39.712Z,7.80
2018-04-25T00:19:07.213Z,7.23
2018-04-25T00:21:34.692Z,6.80
2018-04-25T00:24:02.142Z,7.67
2018-04-25T00:26:29.627Z,7.13
2018-04-25T00:28:57.110Z,7.10
2018-04-25T00:31:24.665Z,7.07
2018-04-25T00:33:52.158Z,7.20
2018-04-25T00:36:19.624Z,7.57
2018-04-25T00:38:47.095Z,8.07
2018-04-25T00:41:14.588Z,7.50
2018-04-25T00:43:42.090Z,8.07
2018-04-25T00:46:09.571Z,8.00
2018-04-25T00:48:37.103Z,7.53
2018-04-25T00:51:04.590Z,7.10
2018-04-25T00:53:32.092Z,6.97
2018-04-25T00:55:59.724Z,8.23
2018-04-25T00:58:27.210Z,8.30
2018-04-25T01:00:54.695Z,7.77
2018-04-25T01:03:22.183Z,7.80
2018-04-25T01:05:49.752Z,7.23
2018-04-25T01:08:17.250Z,8.40
2018-04-25T01:10:44.724Z,7.30
2018-04-25T01:13:12.228Z,7.30
2018-04-25T01:15:39.691Z,8.20
2018-04-25T01:18:07.170Z,8.20
2018-04-25T01:20:34.680Z,7.17
2018-04-25T01:23:04.853Z,6.80
2018-04-25T01:25:33.297Z,6.80
2018-04-25T01:28:07.609Z,7.00
2018-04-25T01:33:33.892Z,7.27
2018-04-25T01:36:01.368Z,7.20
2018-04-25T01:38:32.347Z,7.17
2018-04-25T01:40:59.832Z,6.90
2018-04-25T01:43:27.388Z,6.63
2018-04-25T01:46:10.744Z,6.53
2018-04-25T01:51:45.479Z,6.33
2018-04-25T01:54:24.813Z,6.13
2018-04-25T01:57:03.988Z,6.77
2018-04-25T01:59:43.339Z,7.23
2018-04-25T02:02:10.329Z,7.13
2018-04-25T02:04:37.780Z,6.77
2018-04-25T02:07:05.266Z,6.10
2018-04-25T02:09:32.874Z,6.87
2018-04-25T02:12:00.362Z,6.87
2018-04-25T02:14:27.958Z,6.80
2018-04-25T02:16:55.449Z,7.40
2018-04-25T02:19:22.938Z,6.73
2018-04-25T02:21:50.611Z,6.37
2018-04-25T02:24:18.091Z,7.20
2018-04-25T02:26:45.576Z,6.30
2018-04-25T02:29:13.048Z,7.43
2018-04-25T02:31:40.518Z,6.37
2018-04-25T02:34:07.995Z,6.80
2018-04-25T02:36:35.466Z,7.53
2018-04-25T02:39:02.960Z,6.10
2018-04-25T02:41:30.443Z,6.90
2018-04-25T02:43:57.917Z,7.33
2018-04-25T02:46:25.379Z,6.47
2018-04-25T02:48:52.869Z,6.53
2018-04-25T02:51:20.408Z,6.57
2018-04-25T02:53:47.862Z,6.13
2018-04-25T02:56:15.367Z,6.63
2018-04-25T02:58:42.836Z,5.97
2018-04-25T03:01:10.325Z,5.90
2018-04-25T03:03:37.814Z,6.30
2018-04-25T03:06:05.354Z,6.50
2018-04-25T03:08:32.846Z,6.80
2018-04-25T03:11:00.330Z,6.70
2018-04-25T03:13:27.818Z,6.47
2018-04-25T03:15:55.377Z,6.47
2018-04-25T03:18:22.859Z,6.03
2018-04-25T03:20:50.347Z,6.33
2018-04-25T03:23:17.821Z,6.50
2018-04-25T03:25:45.298Z,6.20
2018-04-25T03:28:12.769Z,6.43
2018-04-25T03:30:40.447Z,6.03
2018-04-25T03:33:07.918Z,6.97
2018-04-25T03:35:35.432Z,6.17
2018-04-25T03:38:02.913Z,6.20
2018-04-25T03:40:30.623Z,6.00
2018-04-25T03:42:58.105Z,6.80
2018-04-25T03:45:25.645Z,6.57
2018-04-25T03:47:53.185Z,5.67
2018-04-25T03:50:20.675Z,6.60
2018-04-25T03:52:48.163Z,6.70
2018-04-25T03:55:15.651Z,6.33
2018-04-25T03:57:43.127Z,6.50
2018-04-25T04:00:10.660Z,6.63
2018-04-25T04:02:38.169Z,6.33
2018-04-25T04:05:05.688Z,6.33
2018-04-25T04:07:33.146Z,5.80
2018-04-25T04:10:00.602Z,5.73
2018-04-25T04:12:28.075Z,6.60
2018-04-25T04:14:55.608Z,5.83
2018-04-25T04:17:23.297Z,5.33
2018-04-25T04:19:50.772Z,5.53
2018-04-25T04:22:18.392Z,6.10
2018-04-25T04:24:45.862Z,5.93
2018-04-25T04:27:13.461Z,6.20
2018-04-25T04:29:40.943Z,5.47
2018-04-25T04:32:09.391Z,5.60
2018-04-25T04:34:36.894Z,5.90
2018-04-25T04:37:04.441Z,5.90
2018-04-25T04:39:31.887Z,6.00
2018-04-25T04:41:59.361Z,6.27
2018-04-25T04:44:26.829Z,6.53
2018-04-25T04:46:54.410Z,6.33
2018-04-25T04:49:21.888Z,6.37
2018-04-25T04:51:49.371Z,6.23
2018-04-25T04:54:16.847Z,7.00
2018-04-25T04:56:44.294Z,6.20
2018-04-25T04:59:11.756Z,6.30
2018-04-25T05:01:39.247Z,6.10
2018-04-25T05:04:06.706Z,5.80
2018-04-25T05:06:34.204Z,6.03
2018-04-25T05:09:01.701Z,6.23
2018-04-25T05:11:29.185Z,5.77
2018-04-25T05:13:56.784Z,6.00
2018-04-25T05:16:24.240Z,6.27
2018-04-25T05:18:51.737Z,6.13
2018-04-25T05:21:19.195Z,6.40
2018-04-25T05:23:46.690Z,6.20
2018-04-25T05:26:14.173Z,6.50
2018-04-25T05:28:41.724Z,6.40
2018-04-25T05:31:09.217Z,6.73
2018-04-25T05:33:36.680Z,6.77
2018-04-25T05:36:04.203Z,5.87
2018-04-25T05:38:31.763Z,6.07
2018-04-25T05:40:59.372Z,5.67
2018-04-25T05:43:26.845Z,6.20
2018-04-25T05:45:54.323Z,5.80
2018-04-25T05:48:21.839Z,6.20
2018-04-25T05:50:49.329Z,5.63
2018-04-25T05:53:16.808Z,5.60
2018-04-25T05:55:44.283Z,6.40
2018-04-25T05:58:11.811Z,6.60
2018-04-25T06:00:39.279Z,6.50
2018-04-25T06:03:06.766Z,5.87
2018-04-25T06:05:34.247Z,6.00
2018-04-25T06:08:02.508Z,6.17
2018-04-25T06:10:30.028Z,5.67
2018-04-25T06:12:57.533Z,6.03
2018-04-25T06:15:25.015Z,5.53
2018-04-25T06:17:52.523Z,5.73
2018-04-25T06:20:20.068Z,5.80
2018-04-25T06:22:47.514Z,5.93
2018-04-25T06:25:15.019Z,5.20
2018-04-25T06:27:42.480Z,5.87
2018-04-25T06:30:09.976Z,6.07
2018-04-25T06:32:37.458Z,5.30
2018-04-25T06:35:04.936Z,6.27
2018-04-25T06:37:32.437Z,5.67
2018-04-25T06:39:59.932Z,5.50
2018-04-25T06:42:27.408Z,5.47
2018-04-25T06:44:54.945Z,4.93
2018-04-25T06:47:22.406Z,5.70
2018-04-25T06:49:49.873Z,5.77
2018-04-25T06:52:17.425Z,5.40
2018-04-25T06:54:44.913Z,5.17
2018-04-25T06:57:12.427Z,5.13
2018-04-25T06:59:40.118Z,5.97
2018-04-25T07:02:07.582Z,5.33
2018-04-25T07:04:35.084Z,5.60
2018-04-25T07:07:02.574Z,5.43
2018-04-25T07:09:30.332Z,5.37
2018-04-25T07:11:57.826Z,5.63
2018-04-25T07:14:25.301Z,5.73
2018-04-25T07:16:52.784Z,6.40
2018-04-25T07:19:20.274Z,6.00
2018-04-25T07:21:47.905Z,5.73
2018-04-25T07:24:15.433Z,5.70
2018-04-25T07:26:43.105Z,5.57
2018-04-25T07:29:10.606Z,5.20
2018-04-25T07:31:38.079Z,4.80
2018-04-25T07:34:05.546Z,5.07
2018-04-25T07:36:33.101Z,4.87
2018-04-25T07:39:00.580Z,5.27
2018-04-25T07:41:28.074Z,4.83
2018-04-25T07:43:55.559Z,5.30
2018-04-25T07:46:23.035Z,4.63
2018-04-25T07:48:50.495Z,4.63
2018-04-25T07:51:18.112Z,4.60
2018-04-25T07:53:45.592Z,4.63
2018-04-25T07:56:13.077Z,4.93
2018-04-25T07:58:40.559Z,4.37
2018-04-25T08:01:08.850Z,4.40
2018-04-25T08:03:36.345Z,4.73
2018-04-25T08:06:03.947Z,4.50
2018-04-25T08:08:31.434Z,4.80
2018-04-25T08:10:58.918Z,4.57
2018-04-25T08:13:38.242Z,4.80
2018-04-25T08:16:17.644Z,5.17
2018-04-25T08:21:46.973Z,5.40
2018-04-25T08:24:14.715Z,5.10
2018-04-25T08:26:42.189Z,4.80
2018-04-25T08:29:09.683Z,5.07
2018-04-25T08:31:37.179Z,5.73
2018-04-25T08:34:04.688Z,5.20
2018-04-25T08:36:32.177Z,5.27
2018-04-25T08:38:59.667Z,4.90
2018-04-25T08:41:27.133Z,5.10
2018-04-25T08:43:54.608Z,5.10
2018-04-25T08:46:22.095Z,4.90
2018-04-25T08:48:49.575Z,4.83
2018-04-25T08:51:17.065Z,4.90
2018-04-25T08:53:44.547Z,4.43
2018-04-25T08:56:12.775Z,4.77
2018-04-25T08:58:40.223Z,5.10
2018-04-25T09:01:07.714Z,4.60
2018-04-25T09:03:35.216Z,4.33
2018-04-25T09:06:02.714Z,4.50
2018-04-25T09:08:30.195Z,4.53
2018-04-25T09:10:57.709Z,5.03
2018-04-25T09:13:25.211Z,4.40
2018-04-25T09:15:52.688Z,5.13
2018-04-25T09:18:20.180Z,4.40
2018-04-25T09:20:47.688Z,4.60
2018-04-25T09:23:15.977Z,4.87
2018-04-25T09:25:43.529Z,5.13
2018-04-25T09:28:11.029Z,4.70
2018-04-25T09:30:38.691Z,4.40
2018-04-25T09:33:06.165Z,3.80
2018-04-25T09:35:33.738Z,4.30
2018-04-25T09:38:01.225Z,4.40
2018-04-25T09:40:28.730Z,3.97
2018-04-25T09:42:56.204Z,4.60
2018-04-25T09:45:23.688Z,3.97
2018-04-25T09:47:51.153Z,4.13
2018-04-25T09:50:19.067Z,4.03
2018-04-25T09:52:46.560Z,4.27
2018-04-25T09:55:14.225Z,4.43
2018-04-25T09:57:41.685Z,4.00
2018-04-25T10:00:09.143Z,3.93
2018-04-25T10:02:36.620Z,3.67
2018-04-25T10:05:04.111Z,4.00
2018-04-25T10:07:31.590Z,4.00
2018-04-25T10:09:59.064Z,4.70
2018-04-25T10:12:26.562Z,4.00
2018-04-25T10:14:54.043Z,4.27
2018-04-25T10:17:21.547Z,4.27
2018-04-25T10:19:49.143Z,3.80
2018-04-25T10:22:16.630Z,4.40
2018-04-25T10:24:44.102Z,3.80
2018-04-25T10:27:11.601Z,4.27
2018-04-25T10:29:39.086Z,3.80
2018-04-25T10:32:07.224Z,4.03
2018-04-25T10:34:34.978Z,4.20
2018-04-25T10:37:02.469Z,3.63
2018-04-25T10:39:30.116Z,3.90
2018-04-25T10:41:57.570Z,4.07
2018-04-25T10:44:25.045Z,3.50
2018-04-25T10:46:52.540Z,3.73
2018-04-25T10:49:20.151Z,3.87
2018-04-25T10:51:47.704Z,4.47
2018-04-25T10:54:15.170Z,5.30
2018-04-25T10:56:42.802Z,5.60
2018-04-25T10:59:10.363Z,6.67
2018-04-25T11:01:38.097Z,5.53
2018-04-25T11:04:05.592Z,5.13
2018-04-25T11:06:33.058Z,5.23
2018-04-25T11:09:00.529Z,5.93
2018-04-25T11:11:28.015Z,5.70
2018-04-25T11:13:55.489Z,5.40
2018-04-25T11:16:22.987Z,5.50
2018-04-25T11:18:50.459Z,4.60
2018-04-25T11:21:17.972Z,5.10
2018-04-25T11:23:45.452Z,5.10
2018-04-25T11:26:12.933Z,5.70
2018-04-25T11:28:40.429Z,5.30
2018-04-25T11:31:07.955Z,5.33
2018-04-25T11:33:35.437Z,4.83
2018-04-25T11:36:02.944Z,5.30
2018-04-25T11:38:30.532Z,4.80
2018-04-25T11:40:58.024Z,4.50
2018-04-25T11:43:25.509Z,5.07
2018-04-25T11:45:53.080Z,4.60
2018-04-25T11:48:20.575Z,4.20
2018-04-25T11:50:48.052Z,4.70
2018-04-25T11:53:15.581Z,4.70
2018-04-25T11:55:43.084Z,4.07
2018-04-25T11:58:10.680Z,4.63
2018-04-25T12:00:38.170Z,4.70
2018-04-25T12:03:05.650Z,4.53
2018-04-25T12:05:33.128Z,4.30
2018-04-25T12:08:00.608Z,4.87
2018-04-25T12:10:31.476Z,4.40
2018-04-25T12:12:59.052Z,3.93
2018-04-25T12:15:26.611Z,4.53
2018-04-25T12:17:54.157Z,4.15
2018-04-25T12:20:21.641Z,4.30
2018-04-25T12:22:49.114Z,4.55
2018-04-25T12:25:16.584Z,4.43
2018-04-25T12:27:44.124Z,4.50
2018-04-25T12:30:11.631Z,3.97
2018-04-25T12:32:39.180Z,4.53
2018-04-25T12:35:06.790Z,4.03
2018-04-25T12:37:34.274Z,4.15
2018-04-25T12:40:01.756Z,4.20
2018-04-25T12:42:29.252Z,3.65
2018-04-25T12:44:56.926Z,4.12
2018-04-25T12:47:24.428Z,3.80
2018-04-25T12:49:51.932Z,3.72
2018-04-25T12:52:19.428Z,3.58
2018-04-25T12:54:46.925Z,3.83
2018-04-25T12:57:14.420Z,3.62
2018-04-25T12:59:41.941Z,3.78
2018-04-25T13:02:09.509Z,3.90
2018-04-25T13:04:37.017Z,4.10
2018-04-25T13:07:04.584Z,3.80
2018-04-25T13:09:32.178Z,4.20
2018-04-25T13:11:59.662Z,9.00
2018-04-25T13:14:27.149Z,4.40
2018-04-25T13:16:54.682Z,4.70
2018-04-25T13:19:22.185Z,4.50
2018-04-25T13:21:49.673Z,4.13
2018-04-25T13:24:17.132Z,4.20
2018-04-25T13:26:44.628Z,4.72
2018-04-25T13:29:12.207Z,3.87
2018-04-25T13:31:41.764Z,4.03
2018-04-25T13:34:09.258Z,4.30
2018-04-25T13:36:36.873Z,3.90
2018-04-25T13:39:04.411Z,4.47
2018-04-25T13:41:31.915Z,3.83
2018-04-25T13:43:59.412Z,4.15
2018-04-25T13:46:26.897Z,4.25
2018-04-25T13:48:54.412Z,3.55
2018-04-25T13:51:21.884Z,3.60
2018-04-25T13:53:49.477Z,3.62
2018-04-25T13:56:16.968Z,3.80
2018-04-25T13:58:44.491Z,4.03
2018-04-25T14:01:12.121Z,3.37
2018-04-25T14:03:39.621Z,3.40
2018-04-25T14:06:07.919Z,3.55
2018-04-25T14:08:37.892Z,3.37
2018-04-25T14:11:05.890Z,3.22
2018-04-25T14:13:33.939Z,3.47
2018-04-25T14:16:01.731Z,3.17
2018-04-25T14:18:29.495Z,3.60
2018-04-25T14:20:57.196Z,3.03
2018-04-25T14:23:25.028Z,4.77
2018-04-25T14:25:52.707Z,2.73
2018-04-25T14:28:20.215Z,3.07
2018-04-25T14:30:47.712Z,2.77
2018-04-25T14:33:15.210Z,2.80
2018-04-25T14:35:42.872Z,2.43
2018-04-25T14:38:10.409Z,3.03
2018-04-25T14:40:37.907Z,3.10
2018-04-25T14:43:05.404Z,2.80
2018-04-25T14:45:33.082Z,2.80
2018-04-25T14:48:00.621Z,2.70
2018-04-25T14:50:28.127Z,2.77
2018-04-25T14:52:55.592Z,2.60
2018-04-25T14:55:23.171Z,2.90
2018-04-25T14:57:50.879Z,2.70
2018-04-25T15:00:18.352Z,2.67
2018-04-25T15:02:45.837Z,2.40
2018-04-25T15:05:13.312Z,2.60
2018-04-25T15:07:41.387Z,2.40
2018-04-25T15:10:08.872Z,2.70
2018-04-25T15:12:36.426Z,2.87
2018-04-25T15:15:04.038Z,2.90
2018-04-25T15:17:31.524Z,2.90
2018-04-25T15:19:59.101Z,2.50
2018-04-25T15:22:26.631Z,3.20
2018-04-25T15:24:54.104Z,3.47
2018-04-25T15:27:21.595Z,2.90
2018-04-25T15:29:49.075Z,3.40
2018-04-25T15:32:16.618Z,3.07
2018-04-25T15:34:44.332Z,2.90
2018-04-25T15:37:12.137Z,2.90
2018-04-25T15:39:39.651Z,2.27
2018-04-25T15:42:07.387Z,2.50
2018-04-25T15:44:34.880Z,2.80
2018-04-25T15:47:02.424Z,2.40
2018-04-25T15:49:29.890Z,2.77
2018-04-25T15:51:57.382Z,2.90
2018-04-25T15:54:24.954Z,2.40
2018-04-25T15:56:52.421Z,2.37
2018-04-25T15:59:19.888Z,2.40
2018-04-25T16:01:47.372Z,2.50
2018-04-25T16:04:14.869Z,2.80
2018-04-25T16:06:42.375Z,2.57
2018-04-25T16:09:09.836Z,2.80
2018-04-25T16:11:37.313Z,2.77
2018-04-25T16:14:04.878Z,3.07
2018-04-25T16:16:32.388Z,2.70
2018-04-25T16:18:59.870Z,2.93
2018-04-25T16:21:27.364Z,2.60
2018-04-25T16:23:54.916Z,2.50
2018-04-25T16:26:22.740Z,2.10
2018-04-25T16:28:50.309Z,2.40
2018-04-25T16:31:17.835Z,3.93
2018-04-25T16:33:45.265Z,1.87
2018-04-25T16:36:12.791Z,2.45
2018-04-25T16:38:40.268Z,2.33
2018-04-25T16:41:07.761Z,2.42
2018-04-25T16:43:35.237Z,2.40
2018-04-25T16:46:02.709Z,2.67
2018-04-25T16:48:30.215Z,2.80
2018-04-25T16:50:57.740Z,3.07
2018-04-25T16:53:25.273Z,3.03
2018-04-25T16:55:52.844Z,2.57
2018-04-25T16:58:20.444Z,2.60
2018-04-25T17:00:48.087Z,2.80
2018-04-25T17:03:15.584Z,2.67
2018-04-25T17:05:43.046Z,2.87
2018-04-25T17:08:10.591Z,3.10
2018-04-25T17:10:38.096Z,3.17
2018-04-25T17:13:05.611Z,3.10
2018-04-25T17:15:33.105Z,3.00
2018-04-25T17:18:00.770Z,2.60
2018-04-25T17:20:28.328Z,2.60
2018-04-25T17:22:56.001Z,3.53
2018-04-25T17:25:23.521Z,2.43
2018-04-25T17:27:51.045Z,2.70
2018-04-25T17:30:18.691Z,2.60
2018-04-25T17:32:46.148Z,2.90
2018-04-25T17:35:13.624Z,2.60
2018-04-25T17:37:41.374Z,2.63
2018-04-25T17:40:15.249Z,3.07
2018-04-25T17:42:42.955Z,2.37
2018-04-25T17:48:12.049Z,2.20
2018-04-25T17:50:39.534Z,2.80
2018-04-25T17:53:24.488Z,2.20
2018-04-25T17:56:05.139Z,2.50
2018-04-25T17:58:40.189Z,2.13
2018-04-25T18:01:10.680Z,2.17
2018-04-25T18:03:56.796Z,2.13
2018-04-25T18:06:37.827Z,2.30
2018-04-25T18:09:08.825Z,2.17
2018-04-25T18:11:47.729Z,2.43
2018-04-25T18:14:34.701Z,2.20
2018-04-25T18:17:06.902Z,2.27
2018-04-25T18:24:55.015Z,2.30
2018-04-25T18:27:22.550Z,2.20
2018-04-25T18:29:50.106Z,2.50
2018-04-25T18:32:17.611Z,2.90
2018-04-25T18:34:45.100Z,2.33
2018-04-25T18:37:12.675Z,2.43
2018-04-25T18:39:40.220Z,2.17
2018-04-25T18:42:08.317Z,2.10
2018-04-25T18:44:36.151Z,2.50
2018-04-25T18:47:04.277Z,2.20
2018-04-25T18:49:31.781Z,2.40
2018-04-25T18:51:59.413Z,2.57
2018-04-25T18:54:26.877Z,2.23
2018-04-25T18:56:54.346Z,2.53
2018-04-25T18:59:21.806Z,2.07
2018-04-25T19:01:49.387Z,2.03
2018-04-25T19:04:16.948Z,2.00
2018-04-25T19:06:44.557Z,1.97
2018-04-25T19:09:12.443Z,2.00
2018-04-25T19:11:39.963Z,2.17
2018-04-25T19:14:07.494Z,1.90
2018-04-25T19:16:35.027Z,1.90
2018-04-25T19:19:03.964Z,2.00
2018-04-25T19:21:31.497Z,2.30
2018-04-25T19:23:59.374Z,2.00
2018-04-25T19:26:27.193Z,1.90
2018-04-25T19:28:54.815Z,2.20
2018-04-25T19:31:22.481Z,2.77
2018-04-25T19:33:50.964Z,1.70
2018-04-25T19:36:18.436Z,1.90
2018-04-25T19:38:45.916Z,1.90
2018-04-25T19:41:13.400Z,1.63
2018-04-25T19:43:40.971Z,1.70
2018-04-25T19:46:08.553Z,1.70
2018-04-25T19:48:36.128Z,1.60
2018-04-25T19:51:03.683Z,1.80
2018-04-25T19:53:31.304Z,1.70
2018-04-25T19:55:59.035Z,1.33
2018-04-25T19:58:26.617Z,1.43
2018-04-25T20:00:54.088Z,1.57
2018-04-25T20:03:21.568Z,1.80
2018-04-25T20:05:49.062Z,1.57
2018-04-25T20:08:16.633Z,1.50
2018-04-25T20:10:44.490Z,1.50
2018-04-25T20:13:12.090Z,1.60
2018-04-25T20:15:39.629Z,1.90
2018-04-25T20:18:07.116Z,1.80
2018-04-25T20:20:34.612Z,1.30
2018-04-25T20:23:02.273Z,1.47
2018-04-25T20:25:29.798Z,1.30
2018-04-25T20:27:57.281Z,1.60
2018-04-25T20:30:24.767Z,1.80
2018-04-25T20:32:52.237Z,1.70
2018-04-25T20:35:19.695Z,1.90
2018-04-25T20:37:47.296Z,2.43
2018-04-25T20:40:14.780Z,1.90
2018-04-25T20:42:42.365Z,2.10
2018-04-25T20:45:09.834Z,1.60
2018-04-25T20:47:37.317Z,1.90
2018-04-25T20:50:04.939Z,1.80
2018-04-25T20:52:32.528Z,1.70
2018-04-25T20:55:00.270Z,1.60
2018-04-25T20:57:28.025Z,2.00
2018-04-25T20:59:55.608Z,1.80
2018-04-25T21:02:23.155Z,1.93
2018-04-25T21:04:50.655Z,2.20
2018-04-25T21:07:18.213Z,2.07
2018-04-25T21:09:45.707Z,1.83
2018-04-25T21:12:13.173Z,1.70
2018-04-25T21:14:40.791Z,2.03
2018-04-25T21:17:08.262Z,1.63
2018-04-25T21:19:35.826Z,1.90
2018-04-25T21:22:03.388Z,2.10
2018-04-25T21:24:31.007Z,1.73
2018-04-25T21:26:58.501Z,1.63
2018-04-25T21:29:25.989Z,1.87
2018-04-25T21:31:53.549Z,2.00
2018-04-25T21:34:21.032Z,1.83
2018-04-25T21:36:48.684Z,1.90
2018-04-25T21:39:16.168Z,1.70
2018-04-25T21:41:43.659Z,1.60
2018-04-25T21:44:11.203Z,1.60
2018-04-25T21:46:38.694Z,1.63
2018-04-25T21:49:06.174Z,1.80
2018-04-25T21:51:33.773Z,1.57
2018-04-25T21:54:01.279Z,1.80
2018-04-25T21:56:28.720Z,1.80
2018-04-25T21:58:56.205Z,1.60
2018-04-25T22:01:23.689Z,1.90
2018-04-25T22:03:51.163Z,1.53
2018-04-25T22:06:18.661Z,1.50
2018-04-25T22:08:46.152Z,2.20
2018-04-25T22:11:13.623Z,1.70
2018-04-25T22:13:41.130Z,1.53
2018-04-25T22:16:08.594Z,1.57
2018-04-25T22:18:36.071Z,1.80
2018-04-25T22:21:03.804Z,2.27
2018-04-25T22:23:31.318Z,2.23
2018-04-25T22:25:58.785Z,3.17
2018-04-25T22:28:26.356Z,3.30
2018-04-25T22:30:53.847Z,3.63
2018-04-25T22:33:21.321Z,3.63
2018-04-25T22:35:48.790Z,4.20
2018-04-25T22:38:16.284Z,4.53
2018-04-25T22:40:43.740Z,4.53
2018-04-25T22:43:11.253Z,4.43
2018-04-25T22:45:38.768Z,4.70
2018-04-25T22:48:06.280Z,4.53
2018-04-25T22:50:33.729Z,4.77
2018-04-25T22:53:01.320Z,4.53
2018-04-25T22:55:28.807Z,5.43
2018-04-25T22:57:56.297Z,5.00
2018-04-25T23:00:23.764Z,4.87
2018-04-25T23:02:51.239Z,5.20
2018-04-25T23:05:18.729Z,5.10
2018-04-25T23:07:46.191Z,5.77
2018-04-25T23:10:13.703Z,5.57
2018-04-25T23:12:41.174Z,5.70
2018-04-25T23:15:08.659Z,5.53
2018-04-25T23:17:36.136Z,5.00
2018-04-25T23:20:03.645Z,5.43
2018-04-25T23:22:31.115Z,5.33
2018-04-25T23:24:58.654Z,5.70
2018-04-25T23:27:26.115Z,5.47
2018-04-25T23:29:53.604Z,5.17
2018-04-25T23:32:21.069Z,5.40
2018-04-25T23:34:48.558Z,4.70
2018-04-25T23:37:16.043Z,5.63
2018-04-25T23:39:43.530Z,5.90
2018-04-25T23:42:11.035Z,5.83
2018-04-25T23:44:38.505Z,5.67
2018-04-25T23:47:07.064Z,5.47
2018-04-25T23:49:34.520Z,5.53
2018-04-25T23:52:02.109Z,5.50
2018-04-25T23:54:29.675Z,5.30
2018-04-25T23:56:57.172Z,4.90
2018-04-25T23:59:24.716Z,5.13
